sensor_id;sensor_type;location;lat;lon;timestamp;P1;durP1;ratioP1;P2;durP2;ratioP2
18443;SDS011;9350;53.176;8.194;2023-03-31T00:02:25;15.90;;;3.20;;
18443;SDS011;9350;53.176;8.194;2023-03-31T00:04:53;17.73;;;3.10;;
18443;SDS011;9350;53.176;8.194;2023-03-31T00:07:23;15.25;;;3.05;;
18443;SDS011;9350;53.176;8.194;2023-03-31T00:09:51;15.00;;;3.20;;
18443;SDS011;9350;53.176;8.194;2023-03-31T00:12:19;24.92;;;3.38;;
18443;SDS011;9350;53.176;8.194;2023-03-31T00:14:46;24.33;;;4.15;;
18443;SDS011;9350;53.176;8.194;2023-03-31T00:17:14;14.35;;;3.13;;
18443;SDS011;9350;53.176;8.194;2023-03-31T00:19:41;16.58;;;3.50;;
18443;SDS011;9350;53.176;8.194;2023-03-31T00:22:07;16.70;;;3.25;;
18443;SDS011;9350;53.176;8.194;2023-03-31T00:24:34;14.80;;;3.03;;
18443;SDS011;9350;53.176;8.194;2023-03-31T00:27:01;16.13;;;3.03;;
18443;SDS011;9350;53.176;8.194;2023-03-31T00:29:30;17.92;;;2.97;;
18443;SDS011;9350;53.176;8.194;2023-03-31T00:31:57;15.65;;;3.25;;
18443;SDS011;9350;53.176;8.194;2023-03-31T00:34:26;14.30;;;3.13;;
18443;SDS011;9350;53.176;8.194;2023-03-31T00:36:54;20.05;;;4.20;;
18443;SDS011;9350;53.176;8.194;2023-03-31T00:39:26;16.63;;;3.13;;
18443;SDS011;9350;53.176;8.194;2023-03-31T00:41:56;11.90;;;2.90;;
18443;SDS011;9350;53.176;8.194;2023-03-31T00:44:23;15.98;;;3.17;;
18443;SDS011;9350;53.176;8.194;2023-03-31T00:46:51;20.08;;;3.15;;
18443;SDS011;9350;53.176;8.194;2023-03-31T00:49:22;15.63;;;3.72;;
18443;SDS011;9350;53.176;8.194;2023-03-31T00:51:56;11.13;;;2.70;;
18443;SDS011;9350;53.176;8.194;2023-03-31T00:54:27;18.10;;;3.63;;
18443;SDS011;9350;53.176;8.194;2023-03-31T00:56:57;15.02;;;3.03;;
18443;SDS011;9350;53.176;8.194;2023-03-31T00:59:27;17.80;;;2.97;;
18443;SDS011;9350;53.176;8.194;2023-03-31T01:01:57;10.80;;;2.92;;
18443;SDS011;9350;53.176;8.194;2023-03-31T01:04:28;13.32;;;3.20;;
18443;SDS011;9350;53.176;8.194;2023-03-31T01:06:59;13.82;;;3.22;;
18443;SDS011;9350;53.176;8.194;2023-03-31T01:09:33;17.40;;;3.30;;
18443;SDS011;9350;53.176;8.194;2023-03-31T01:12:02;16.80;;;3.05;;
18443;SDS011;9350;53.176;8.194;2023-03-31T01:14:32;16.08;;;2.75;;
18443;SDS011;9350;53.176;8.194;2023-03-31T01:16:59;20.83;;;3.05;;
18443;SDS011;9350;53.176;8.194;2023-03-31T01:19:30;15.68;;;3.17;;
18443;SDS011;9350;53.176;8.194;2023-03-31T01:25:23;15.75;;;2.40;;
18443;SDS011;9350;53.176;8.194;2023-03-31T01:28:16;20.48;;;3.50;;
18443;SDS011;9350;53.176;8.194;2023-03-31T01:40:16;17.38;;;3.38;;
18443;SDS011;9350;53.176;8.194;2023-03-31T01:43:06;21.88;;;3.13;;
18443;SDS011;9350;53.176;8.194;2023-03-31T01:45:42;16.52;;;3.20;;
18443;SDS011;9350;53.176;8.194;2023-03-31T01:48:16;17.33;;;2.67;;
18443;SDS011;9350;53.176;8.194;2023-03-31T01:50:48;13.98;;;3.35;;
18443;SDS011;9350;53.176;8.194;2023-03-31T01:53:22;14.52;;;3.13;;
18443;SDS011;9350;53.176;8.194;2023-03-31T01:56:01;16.30;;;3.50;;
18443;SDS011;9350;53.176;8.194;2023-03-31T01:58:34;16.40;;;3.00;;
18443;SDS011;9350;53.176;8.194;2023-03-31T02:01:05;17.17;;;2.60;;
18443;SDS011;9350;53.176;8.194;2023-03-31T02:03:38;20.17;;;3.17;;
18443;SDS011;9350;53.176;8.194;2023-03-31T02:06:11;14.45;;;2.85;;
18443;SDS011;9350;53.176;8.194;2023-03-31T02:08:43;11.63;;;3.17;;
18443;SDS011;9350;53.176;8.194;2023-03-31T02:11:15;13.35;;;3.28;;
18443;SDS011;9350;53.176;8.194;2023-03-31T02:13:43;19.92;;;3.35;;
18443;SDS011;9350;53.176;8.194;2023-03-31T02:16:12;19.13;;;3.58;;
18443;SDS011;9350;53.176;8.194;2023-03-31T02:18:46;16.63;;;3.55;;
18443;SDS011;9350;53.176;8.194;2023-03-31T02:21:14;13.30;;;3.50;;
18443;SDS011;9350;53.176;8.194;2023-03-31T02:23:41;11.80;;;3.60;;
18443;SDS011;9350;53.176;8.194;2023-03-31T02:26:11;14.40;;;3.67;;
18443;SDS011;9350;53.176;8.194;2023-03-31T02:28:42;10.65;;;3.45;;
18443;SDS011;9350;53.176;8.194;2023-03-31T02:31:15;10.50;;;3.72;;
18443;SDS011;9350;53.176;8.194;2023-03-31T02:33:50;16.08;;;2.95;;
18443;SDS011;9350;53.176;8.194;2023-03-31T02:36:17;16.80;;;4.00;;
18443;SDS011;9350;53.176;8.194;2023-03-31T02:38:46;10.60;;;3.47;;
18443;SDS011;9350;53.176;8.194;2023-03-31T02:41:17;13.45;;;3.38;;
18443;SDS011;9350;53.176;8.194;2023-03-31T02:43:45;14.25;;;4.28;;
18443;SDS011;9350;53.176;8.194;2023-03-31T02:46:11;20.92;;;3.50;;
18443;SDS011;9350;53.176;8.194;2023-03-31T02:48:39;15.07;;;4.10;;
18443;SDS011;9350;53.176;8.194;2023-03-31T02:54:22;13.43;;;3.78;;
18443;SDS011;9350;53.176;8.194;2023-03-31T02:57:08;11.05;;;3.35;;
18443;SDS011;9350;53.176;8.194;2023-03-31T03:00:00;18.58;;;4.00;;
18443;SDS011;9350;53.176;8.194;2023-03-31T03:02:35;14.07;;;3.40;;
18443;SDS011;9350;53.176;8.194;2023-03-31T03:05:11;17.10;;;3.80;;
18443;SDS011;9350;53.176;8.194;2023-03-31T03:07:47;16.33;;;3.50;;
18443;SDS011;9350;53.176;8.194;2023-03-31T03:10:26;9.45;;;3.67;;
18443;SDS011;9350;53.176;8.194;2023-03-31T03:13:00;10.18;;;3.47;;
18443;SDS011;9350;53.176;8.194;2023-03-31T03:15:38;14.63;;;3.70;;
18443;SDS011;9350;53.176;8.194;2023-03-31T03:18:09;14.15;;;3.65;;
18443;SDS011;9350;53.176;8.194;2023-03-31T03:20:37;13.48;;;3.65;;
18443;SDS011;9350;53.176;8.194;2023-03-31T03:23:05;11.75;;;3.08;;
18443;SDS011;9350;53.176;8.194;2023-03-31T03:25:31;13.55;;;3.60;;
18443;SDS011;9350;53.176;8.194;2023-03-31T03:27:59;9.93;;;2.88;;
18443;SDS011;9350;53.176;8.194;2023-03-31T03:30:26;16.38;;;3.40;;
18443;SDS011;9350;53.176;8.194;2023-03-31T03:32:54;10.57;;;3.30;;
18443;SDS011;9350;53.176;8.194;2023-03-31T03:35:22;12.57;;;3.28;;
18443;SDS011;9350;53.176;8.194;2023-03-31T03:37:49;12.18;;;2.72;;
18443;SDS011;9350;53.176;8.194;2023-03-31T03:40:16;9.60;;;2.92;;
18443;SDS011;9350;53.176;8.194;2023-03-31T03:42:43;9.63;;;2.65;;
18443;SDS011;9350;53.176;8.194;2023-03-31T03:45:10;13.32;;;3.20;;
18443;SDS011;9350;53.176;8.194;2023-03-31T03:47:36;10.07;;;2.70;;
18443;SDS011;9350;53.176;8.194;2023-03-31T03:50:05;10.52;;;2.70;;
18443;SDS011;9350;53.176;8.194;2023-03-31T03:52:32;9.63;;;2.83;;
18443;SDS011;9350;53.176;8.194;2023-03-31T03:54:59;10.02;;;2.78;;
18443;SDS011;9350;53.176;8.194;2023-03-31T03:57:27;11.77;;;3.25;;
18443;SDS011;9350;53.176;8.194;2023-03-31T03:59:54;14.93;;;3.30;;
18443;SDS011;9350;53.176;8.194;2023-03-31T04:02:20;15.25;;;3.13;;
18443;SDS011;9350;53.176;8.194;2023-03-31T04:04:47;9.80;;;2.90;;
18443;SDS011;9350;53.176;8.194;2023-03-31T04:07:15;11.15;;;2.80;;
18443;SDS011;9350;53.176;8.194;2023-03-31T04:09:42;12.18;;;3.20;;
18443;SDS011;9350;53.176;8.194;2023-03-31T04:12:08;13.02;;;3.03;;
18443;SDS011;9350;53.176;8.194;2023-03-31T04:14:36;9.40;;;2.50;;
18443;SDS011;9350;53.176;8.194;2023-03-31T04:17:02;12.40;;;2.83;;
18443;SDS011;9350;53.176;8.194;2023-03-31T04:19:29;11.27;;;2.97;;
18443;SDS011;9350;53.176;8.194;2023-03-31T04:21:56;7.50;;;2.67;;
18443;SDS011;9350;53.176;8.194;2023-03-31T04:24:28;10.40;;;2.50;;
18443;SDS011;9350;53.176;8.194;2023-03-31T04:26:56;11.80;;;2.92;;
18443;SDS011;9350;53.176;8.194;2023-03-31T04:29:24;13.48;;;2.63;;
18443;SDS011;9350;53.176;8.194;2023-03-31T04:31:51;9.13;;;2.72;;
18443;SDS011;9350;53.176;8.194;2023-03-31T04:34:23;8.88;;;2.70;;
18443;SDS011;9350;53.176;8.194;2023-03-31T04:36:58;8.00;;;2.30;;
18443;SDS011;9350;53.176;8.194;2023-03-31T04:39:28;21.20;;;2.95;;
18443;SDS011;9350;53.176;8.194;2023-03-31T04:41:55;13.18;;;3.13;;
18443;SDS011;9350;53.176;8.194;2023-03-31T04:44:23;14.35;;;3.35;;
18443;SDS011;9350;53.176;8.194;2023-03-31T04:46:50;10.23;;;2.53;;
18443;SDS011;9350;53.176;8.194;2023-03-31T04:49:17;13.05;;;2.75;;
18443;SDS011;9350;53.176;8.194;2023-03-31T04:51:43;10.80;;;2.90;;
18443;SDS011;9350;53.176;8.194;2023-03-31T04:54:10;9.52;;;2.88;;
18443;SDS011;9350;53.176;8.194;2023-03-31T04:56:38;10.40;;;2.90;;
18443;SDS011;9350;53.176;8.194;2023-03-31T04:59:05;11.45;;;3.33;;
18443;SDS011;9350;53.176;8.194;2023-03-31T05:01:32;15.30;;;3.13;;
18443;SDS011;9350;53.176;8.194;2023-03-31T05:04:00;9.57;;;2.95;;
18443;SDS011;9350;53.176;8.194;2023-03-31T05:06:27;13.57;;;2.97;;
18443;SDS011;9350;53.176;8.194;2023-03-31T05:08:54;11.13;;;2.83;;
18443;SDS011;9350;53.176;8.194;2023-03-31T05:11:20;12.18;;;3.65;;
18443;SDS011;9350;53.176;8.194;2023-03-31T05:13:48;16.52;;;3.50;;
18443;SDS011;9350;53.176;8.194;2023-03-31T05:16:15;13.20;;;3.60;;
18443;SDS011;9350;53.176;8.194;2023-03-31T05:18:42;9.13;;;3.17;;
18443;SDS011;9350;53.176;8.194;2023-03-31T05:21:11;8.95;;;3.10;;
18443;SDS011;9350;53.176;8.194;2023-03-31T05:23:38;6.90;;;2.67;;
18443;SDS011;9350;53.176;8.194;2023-03-31T05:26:06;8.77;;;3.58;;
18443;SDS011;9350;53.176;8.194;2023-03-31T05:28:33;11.13;;;2.60;;
18443;SDS011;9350;53.176;8.194;2023-03-31T05:31:02;10.13;;;3.00;;
18443;SDS011;9350;53.176;8.194;2023-03-31T05:33:29;4.93;;;2.58;;
18443;SDS011;9350;53.176;8.194;2023-03-31T05:35:57;7.80;;;2.33;;
18443;SDS011;9350;53.176;8.194;2023-03-31T05:38:25;8.10;;;2.78;;
18443;SDS011;9350;53.176;8.194;2023-03-31T05:40:55;8.85;;;2.60;;
18443;SDS011;9350;53.176;8.194;2023-03-31T05:43:22;11.23;;;2.33;;
18443;SDS011;9350;53.176;8.194;2023-03-31T05:45:49;7.88;;;2.67;;
18443;SDS011;9350;53.176;8.194;2023-03-31T05:48:17;7.03;;;2.70;;
18443;SDS011;9350;53.176;8.194;2023-03-31T05:50:45;7.03;;;2.50;;
18443;SDS011;9350;53.176;8.194;2023-03-31T05:53:12;6.95;;;2.90;;
18443;SDS011;9350;53.176;8.194;2023-03-31T05:55:39;8.30;;;2.63;;
18443;SDS011;9350;53.176;8.194;2023-03-31T05:58:05;12.48;;;3.65;;
18443;SDS011;9350;53.176;8.194;2023-03-31T06:00:33;11.48;;;3.28;;
18443;SDS011;9350;53.176;8.194;2023-03-31T06:03:00;10.85;;;4.28;;
18443;SDS011;9350;53.176;8.194;2023-03-31T06:05:28;13.45;;;4.38;;
18443;SDS011;9350;53.176;8.194;2023-03-31T06:07:56;11.85;;;4.68;;
18443;SDS011;9350;53.176;8.194;2023-03-31T06:10:23;11.68;;;5.82;;
18443;SDS011;9350;53.176;8.194;2023-03-31T06:12:49;12.10;;;5.75;;
18443;SDS011;9350;53.176;8.194;2023-03-31T06:15:16;11.85;;;5.68;;
18443;SDS011;9350;53.176;8.194;2023-03-31T06:17:43;18.65;;;6.97;;
18443;SDS011;9350;53.176;8.194;2023-03-31T06:20:10;13.38;;;6.85;;
18443;SDS011;9350;53.176;8.194;2023-03-31T06:22:38;11.15;;;6.90;;
18443;SDS011;9350;53.176;8.194;2023-03-31T06:25:05;15.93;;;7.80;;
18443;SDS011;9350;53.176;8.194;2023-03-31T06:27:32;15.15;;;7.90;;
18443;SDS011;9350;53.176;8.194;2023-03-31T06:29:58;11.50;;;8.10;;
18443;SDS011;9350;53.176;8.194;2023-03-31T06:32:25;17.60;;;8.02;;
18443;SDS011;9350;53.176;8.194;2023-03-31T06:34:52;14.60;;;7.93;;
18443;SDS011;9350;53.176;8.194;2023-03-31T06:37:18;14.18;;;7.85;;
18443;SDS011;9350;53.176;8.194;2023-03-31T06:39:46;16.45;;;8.05;;
18443;SDS011;9350;53.176;8.194;2023-03-31T06:42:14;14.20;;;8.20;;
18443;SDS011;9350;53.176;8.194;2023-03-31T06:44:41;16.15;;;8.38;;
18443;SDS011;9350;53.176;8.194;2023-03-31T06:47:07;14.63;;;9.52;;
18443;SDS011;9350;53.176;8.194;2023-03-31T06:49:34;13.43;;;8.60;;
18443;SDS011;9350;53.176;8.194;2023-03-31T06:52:01;13.38;;;8.15;;
18443;SDS011;9350;53.176;8.194;2023-03-31T06:54:28;12.43;;;7.95;;
18443;SDS011;9350;53.176;8.194;2023-03-31T06:56:56;11.93;;;8.52;;
18443;SDS011;9350;53.176;8.194;2023-03-31T06:59:23;12.65;;;8.00;;
18443;SDS011;9350;53.176;8.194;2023-03-31T07:01:49;12.70;;;8.10;;
18443;SDS011;9350;53.176;8.194;2023-03-31T07:04:16;10.70;;;8.10;;
18443;SDS011;9350;53.176;8.194;2023-03-31T07:06:43;13.60;;;8.27;;
18443;SDS011;9350;53.176;8.194;2023-03-31T07:09:09;11.77;;;7.63;;
18443;SDS011;9350;53.176;8.194;2023-03-31T07:11:36;15.02;;;7.78;;
18443;SDS011;9350;53.176;8.194;2023-03-31T07:14:04;16.63;;;8.43;;
18443;SDS011;9350;53.176;8.194;2023-03-31T07:16:31;15.20;;;8.70;;
18443;SDS011;9350;53.176;8.194;2023-03-31T07:18:58;13.00;;;8.25;;
18443;SDS011;9350;53.176;8.194;2023-03-31T07:21:28;16.20;;;8.93;;
18443;SDS011;9350;53.176;8.194;2023-03-31T07:23:55;13.88;;;8.85;;
18443;SDS011;9350;53.176;8.194;2023-03-31T07:26:22;18.60;;;8.45;;
18443;SDS011;9350;53.176;8.194;2023-03-31T07:28:50;14.88;;;8.98;;
18443;SDS011;9350;53.176;8.194;2023-03-31T07:31:18;15.02;;;8.82;;
18443;SDS011;9350;53.176;8.194;2023-03-31T07:33:44;16.95;;;9.35;;
18443;SDS011;9350;53.176;8.194;2023-03-31T07:36:11;14.07;;;9.30;;
18443;SDS011;9350;53.176;8.194;2023-03-31T07:38:38;13.57;;;8.93;;
18443;SDS011;9350;53.176;8.194;2023-03-31T07:41:08;15.30;;;9.40;;
18443;SDS011;9350;53.176;8.194;2023-03-31T07:43:36;13.07;;;8.88;;
18443;SDS011;9350;53.176;8.194;2023-03-31T07:46:03;13.82;;;8.68;;
18443;SDS011;9350;53.176;8.194;2023-03-31T07:48:33;12.88;;;8.70;;
18443;SDS011;9350;53.176;8.194;2023-03-31T07:51:00;12.05;;;8.32;;
18443;SDS011;9350;53.176;8.194;2023-03-31T07:53:27;12.75;;;8.52;;
18443;SDS011;9350;53.176;8.194;2023-03-31T07:55:53;14.73;;;8.80;;
18443;SDS011;9350;53.176;8.194;2023-03-31T07:58:20;12.85;;;8.85;;
18443;SDS011;9350;53.176;8.194;2023-03-31T08:00:47;13.13;;;8.43;;
18443;SDS011;9350;53.176;8.194;2023-03-31T08:03:14;13.75;;;8.43;;
18443;SDS011;9350;53.176;8.194;2023-03-31T08:05:42;12.98;;;8.20;;
18443;SDS011;9350;53.176;8.194;2023-03-31T08:08:08;12.23;;;8.05;;
18443;SDS011;9350;53.176;8.194;2023-03-31T08:10:35;15.80;;;8.25;;
18443;SDS011;9350;53.176;8.194;2023-03-31T08:13:02;14.55;;;8.80;;
18443;SDS011;9350;53.176;8.194;2023-03-31T08:15:29;13.00;;;9.10;;
18443;SDS011;9350;53.176;8.194;2023-03-31T08:17:55;16.20;;;9.45;;
18443;SDS011;9350;53.176;8.194;2023-03-31T08:20:22;13.88;;;8.93;;
18443;SDS011;9350;53.176;8.194;2023-03-31T08:22:50;12.00;;;8.68;;
18443;SDS011;9350;53.176;8.194;2023-03-31T08:25:17;13.95;;;9.00;;
18443;SDS011;9350;53.176;8.194;2023-03-31T08:27:45;15.82;;;9.50;;
18443;SDS011;9350;53.176;8.194;2023-03-31T08:30:15;15.77;;;9.38;;
18443;SDS011;9350;53.176;8.194;2023-03-31T08:32:43;11.45;;;8.82;;
18443;SDS011;9350;53.176;8.194;2023-03-31T08:35:10;14.52;;;9.77;;
18443;SDS011;9350;53.176;8.194;2023-03-31T08:37:37;11.90;;;9.35;;
18443;SDS011;9350;53.176;8.194;2023-03-31T08:40:06;15.93;;;9.98;;
18443;SDS011;9350;53.176;8.194;2023-03-31T08:42:40;16.88;;;10.02;;
18443;SDS011;9350;53.176;8.194;2023-03-31T08:45:14;14.25;;;9.68;;
18443;SDS011;9350;53.176;8.194;2023-03-31T08:47:45;16.88;;;9.50;;
18443;SDS011;9350;53.176;8.194;2023-03-31T08:50:16;13.95;;;9.07;;
18443;SDS011;9350;53.176;8.194;2023-03-31T08:52:46;13.38;;;8.75;;
18443;SDS011;9350;53.176;8.194;2023-03-31T08:55:19;12.52;;;8.60;;
18443;SDS011;9350;53.176;8.194;2023-03-31T08:57:53;12.88;;;8.48;;
18443;SDS011;9350;53.176;8.194;2023-03-31T09:00:24;11.88;;;8.82;;
18443;SDS011;9350;53.176;8.194;2023-03-31T09:02:54;12.80;;;8.82;;
18443;SDS011;9350;53.176;8.194;2023-03-31T09:05:30;17.35;;;9.45;;
18443;SDS011;9350;53.176;8.194;2023-03-31T09:08:12;18.25;;;9.50;;
18443;SDS011;9350;53.176;8.194;2023-03-31T09:10:48;16.23;;;10.82;;
18443;SDS011;9350;53.176;8.194;2023-03-31T09:13:29;16.67;;;10.45;;
18443;SDS011;9350;53.176;8.194;2023-03-31T09:16:18;17.85;;;11.30;;
18443;SDS011;9350;53.176;8.194;2023-03-31T09:18:49;18.38;;;12.38;;
18443;SDS011;9350;53.176;8.194;2023-03-31T09:21:20;19.17;;;12.13;;
18443;SDS011;9350;53.176;8.194;2023-03-31T09:23:54;16.63;;;12.00;;
18443;SDS011;9350;53.176;8.194;2023-03-31T09:26:31;18.25;;;12.60;;
18443;SDS011;9350;53.176;8.194;2023-03-31T09:29:02;18.27;;;12.52;;
18443;SDS011;9350;53.176;8.194;2023-03-31T09:31:36;16.55;;;12.10;;
18443;SDS011;9350;53.176;8.194;2023-03-31T09:34:07;20.77;;;11.88;;
18443;SDS011;9350;53.176;8.194;2023-03-31T09:36:38;17.98;;;10.85;;
18443;SDS011;9350;53.176;8.194;2023-03-31T09:39:05;18.02;;;10.57;;
18443;SDS011;9350;53.176;8.194;2023-03-31T09:41:33;13.73;;;9.52;;
18443;SDS011;9350;53.176;8.194;2023-03-31T09:44:00;17.42;;;9.93;;
18443;SDS011;9350;53.176;8.194;2023-03-31T09:46:28;12.70;;;9.15;;
18443;SDS011;9350;53.176;8.194;2023-03-31T09:48:57;17.02;;;9.88;;
18443;SDS011;9350;53.176;8.194;2023-03-31T09:51:29;12.93;;;9.80;;
18443;SDS011;9350;53.176;8.194;2023-03-31T09:54:02;13.65;;;9.23;;
18443;SDS011;9350;53.176;8.194;2023-03-31T09:56:45;14.70;;;9.30;;
18443;SDS011;9350;53.176;8.194;2023-03-31T09:59:15;12.18;;;8.65;;
18443;SDS011;9350;53.176;8.194;2023-03-31T10:01:43;15.35;;;8.48;;
18443;SDS011;9350;53.176;8.194;2023-03-31T10:04:16;14.45;;;8.27;;
18443;SDS011;9350;53.176;8.194;2023-03-31T10:06:46;11.30;;;7.25;;
18443;SDS011;9350;53.176;8.194;2023-03-31T10:09:13;12.60;;;7.00;;
18443;SDS011;9350;53.176;8.194;2023-03-31T10:11:51;13.98;;;8.18;;
18443;SDS011;9350;53.176;8.194;2023-03-31T10:14:23;11.02;;;7.70;;
18443;SDS011;9350;53.176;8.194;2023-03-31T10:16:52;13.35;;;7.35;;
18443;SDS011;9350;53.176;8.194;2023-03-31T10:19:20;15.52;;;7.72;;
18443;SDS011;9350;53.176;8.194;2023-03-31T10:21:55;12.50;;;7.20;;
18443;SDS011;9350;53.176;8.194;2023-03-31T10:24:23;12.45;;;7.82;;
18443;SDS011;9350;53.176;8.194;2023-03-31T10:26:53;12.82;;;7.30;;
18443;SDS011;9350;53.176;8.194;2023-03-31T10:29:26;11.10;;;6.93;;
18443;SDS011;9350;53.176;8.194;2023-03-31T10:31:59;12.95;;;7.30;;
18443;SDS011;9350;53.176;8.194;2023-03-31T10:34:28;11.18;;;6.80;;
18443;SDS011;9350;53.176;8.194;2023-03-31T10:36:56;14.50;;;7.38;;
18443;SDS011;9350;53.176;8.194;2023-03-31T10:39:24;9.35;;;6.60;;
18443;SDS011;9350;53.176;8.194;2023-03-31T10:41:57;10.90;;;6.65;;
18443;SDS011;9350;53.176;8.194;2023-03-31T10:44:32;10.65;;;6.63;;
18443;SDS011;9350;53.176;8.194;2023-03-31T10:47:05;10.55;;;7.05;;
18443;SDS011;9350;53.176;8.194;2023-03-31T10:49:42;10.65;;;6.63;;
18443;SDS011;9350;53.176;8.194;2023-03-31T10:52:14;8.88;;;6.28;;
18443;SDS011;9350;53.176;8.194;2023-03-31T10:54:47;10.57;;;6.60;;
18443;SDS011;9350;53.176;8.194;2023-03-31T10:57:16;11.80;;;6.32;;
18443;SDS011;9350;53.176;8.194;2023-03-31T10:59:53;13.75;;;6.22;;
18443;SDS011;9350;53.176;8.194;2023-03-31T11:05:44;7.60;;;5.85;;
18443;SDS011;9350;53.176;8.194;2023-03-31T11:08:28;9.98;;;6.13;;
18443;SDS011;9350;53.176;8.194;2023-03-31T11:11:08;9.55;;;6.20;;
18443;SDS011;9350;53.176;8.194;2023-03-31T11:13:50;10.27;;;6.07;;
18443;SDS011;9350;53.176;8.194;2023-03-31T11:16:25;9.77;;;6.07;;
18443;SDS011;9350;53.176;8.194;2023-03-31T11:19:07;11.63;;;6.28;;
18443;SDS011;9350;53.176;8.194;2023-03-31T11:21:44;13.40;;;6.13;;
18443;SDS011;9350;53.176;8.194;2023-03-31T11:24:23;9.80;;;5.35;;
18443;SDS011;9350;53.176;8.194;2023-03-31T11:26:58;6.80;;;5.18;;
18443;SDS011;9350;53.176;8.194;2023-03-31T11:29:34;8.27;;;5.20;;
18443;SDS011;9350;53.176;8.194;2023-03-31T11:32:13;7.65;;;5.43;;
18443;SDS011;9350;53.176;8.194;2023-03-31T11:34:53;7.45;;;5.03;;
18443;SDS011;9350;53.176;8.194;2023-03-31T11:37:37;8.18;;;4.28;;
18443;SDS011;9350;53.176;8.194;2023-03-31T11:40:27;8.65;;;4.30;;
18443;SDS011;9350;53.176;8.194;2023-03-31T11:43:06;6.15;;;4.10;;
18443;SDS011;9350;53.176;8.194;2023-03-31T11:45:38;5.20;;;3.97;;
18443;SDS011;9350;53.176;8.194;2023-03-31T11:48:13;5.20;;;4.18;;
18443;SDS011;9350;53.176;8.194;2023-03-31T11:50:46;8.60;;;4.35;;
18443;SDS011;9350;53.176;8.194;2023-03-31T11:53:15;7.35;;;4.20;;
18443;SDS011;9350;53.176;8.194;2023-03-31T11:55:45;8.65;;;4.63;;
18443;SDS011;9350;53.176;8.194;2023-03-31T11:58:16;7.78;;;4.85;;
18443;SDS011;9350;53.176;8.194;2023-03-31T12:00:49;7.18;;;4.80;;
18443;SDS011;9350;53.176;8.194;2023-03-31T12:03:18;6.88;;;4.72;;
18443;SDS011;9350;53.176;8.194;2023-03-31T12:05:49;5.63;;;4.72;;
18443;SDS011;9350;53.176;8.194;2023-03-31T12:08:22;8.90;;;4.90;;
18443;SDS011;9350;53.176;8.194;2023-03-31T12:10:58;10.82;;;4.97;;
18443;SDS011;9350;53.176;8.194;2023-03-31T12:13:35;4.47;;;4.07;;
18443;SDS011;9350;53.176;8.194;2023-03-31T12:16:10;5.05;;;3.50;;
18443;SDS011;9350;53.176;8.194;2023-03-31T12:18:40;5.85;;;3.60;;
18443;SDS011;9350;53.176;8.194;2023-03-31T12:21:12;4.03;;;3.70;;
18443;SDS011;9350;53.176;8.194;2023-03-31T12:23:39;3.45;;;3.25;;
18443;SDS011;9350;53.176;8.194;2023-03-31T12:26:11;5.82;;;2.97;;
18443;SDS011;9350;53.176;8.194;2023-03-31T12:28:54;5.40;;;3.20;;
18443;SDS011;9350;53.176;8.194;2023-03-31T12:31:25;5.25;;;2.67;;
18443;SDS011;9350;53.176;8.194;2023-03-31T12:33:55;4.97;;;2.72;;
18443;SDS011;9350;53.176;8.194;2023-03-31T12:36:29;3.10;;;2.63;;
18443;SDS011;9350;53.176;8.194;2023-03-31T12:39:09;2.67;;;2.47;;
18443;SDS011;9350;53.176;8.194;2023-03-31T12:41:53;2.58;;;2.38;;
18443;SDS011;9350;53.176;8.194;2023-03-31T12:44:34;2.70;;;2.50;;
18443;SDS011;9350;53.176;8.194;2023-03-31T12:47:22;3.70;;;2.40;;
18443;SDS011;9350;53.176;8.194;2023-03-31T12:50:15;4.68;;;2.53;;
18443;SDS011;9350;53.176;8.194;2023-03-31T12:52:59;3.08;;;2.15;;
18443;SDS011;9350;53.176;8.194;2023-03-31T12:55:35;2.72;;;2.00;;
18443;SDS011;9350;53.176;8.194;2023-03-31T13:01:07;4.43;;;2.10;;
18443;SDS011;9350;53.176;8.194;2023-03-31T13:03:37;5.70;;;2.40;;
18443;SDS011;9350;53.176;8.194;2023-03-31T13:06:10;5.50;;;2.13;;
18443;SDS011;9350;53.176;8.194;2023-03-31T13:08:54;4.60;;;2.30;;
18443;SDS011;9350;53.176;8.194;2023-03-31T13:11:21;3.05;;;2.10;;
18443;SDS011;9350;53.176;8.194;2023-03-31T13:14:01;2.30;;;2.10;;
18443;SDS011;9350;53.176;8.194;2023-03-31T13:16:31;4.35;;;2.38;;
18443;SDS011;9350;53.176;8.194;2023-03-31T13:19:01;7.07;;;2.40;;
18443;SDS011;9350;53.176;8.194;2023-03-31T13:21:28;2.53;;;2.30;;
18443;SDS011;9350;53.176;8.194;2023-03-31T13:23:58;3.88;;;2.22;;
18443;SDS011;9350;53.176;8.194;2023-03-31T13:26:36;4.78;;;2.38;;
18443;SDS011;9350;53.176;8.194;2023-03-31T13:29:08;2.33;;;2.10;;
18443;SDS011;9350;53.176;8.194;2023-03-31T13:34:45;5.50;;;2.50;;
18443;SDS011;9350;53.176;8.194;2023-03-31T13:37:18;3.33;;;2.45;;
18443;SDS011;9350;53.176;8.194;2023-03-31T13:42:51;8.23;;;2.90;;
18443;SDS011;9350;53.176;8.194;2023-03-31T13:45:37;6.20;;;3.03;;
18443;SDS011;9350;53.176;8.194;2023-03-31T13:48:17;3.20;;;2.40;;
18443;SDS011;9350;53.176;8.194;2023-03-31T13:50:57;4.13;;;2.55;;
18443;SDS011;9350;53.176;8.194;2023-03-31T13:53:45;4.93;;;2.70;;
18443;SDS011;9350;53.176;8.194;2023-03-31T13:56:30;3.75;;;2.67;;
18443;SDS011;9350;53.176;8.194;2023-03-31T13:59:28;4.25;;;2.50;;
18443;SDS011;9350;53.176;8.194;2023-03-31T14:05:25;4.95;;;2.30;;
18443;SDS011;9350;53.176;8.194;2023-03-31T14:07:58;3.20;;;2.50;;
18443;SDS011;9350;53.176;8.194;2023-03-31T14:10:29;4.75;;;2.47;;
18443;SDS011;9350;53.176;8.194;2023-03-31T14:13:04;4.30;;;2.05;;
18443;SDS011;9350;53.176;8.194;2023-03-31T14:15:32;4.10;;;2.20;;
18443;SDS011;9350;53.176;8.194;2023-03-31T14:18:01;3.33;;;2.40;;
18443;SDS011;9350;53.176;8.194;2023-03-31T14:20:34;5.57;;;2.30;;
18443;SDS011;9350;53.176;8.194;2023-03-31T14:23:31;6.35;;;2.40;;
18443;SDS011;9350;53.176;8.194;2023-03-31T14:26:09;4.90;;;2.22;;
18443;SDS011;9350;53.176;8.194;2023-03-31T14:28:46;4.55;;;2.38;;
18443;SDS011;9350;53.176;8.194;2023-03-31T14:31:22;5.47;;;2.40;;
18443;SDS011;9350;53.176;8.194;2023-03-31T14:34:02;4.05;;;2.20;;
18443;SDS011;9350;53.176;8.194;2023-03-31T14:36:41;6.05;;;2.33;;
18443;SDS011;9350;53.176;8.194;2023-03-31T14:39:15;8.35;;;2.65;;
18443;SDS011;9350;53.176;8.194;2023-03-31T14:41:49;5.80;;;2.40;;
18443;SDS011;9350;53.176;8.194;2023-03-31T14:44:17;5.97;;;2.40;;
18443;SDS011;9350;53.176;8.194;2023-03-31T14:46:44;5.93;;;1.90;;
18443;SDS011;9350;53.176;8.194;2023-03-31T14:49:14;8.85;;;2.70;;
18443;SDS011;9350;53.176;8.194;2023-03-31T14:51:46;5.25;;;2.30;;
18443;SDS011;9350;53.176;8.194;2023-03-31T14:54:15;3.15;;;2.15;;
18443;SDS011;9350;53.176;8.194;2023-03-31T14:56:44;8.55;;;3.33;;
18443;SDS011;9350;53.176;8.194;2023-03-31T14:59:15;7.95;;;2.90;;
18443;SDS011;9350;53.176;8.194;2023-03-31T15:01:45;6.45;;;2.90;;
18443;SDS011;9350;53.176;8.194;2023-03-31T15:04:14;8.82;;;3.22;;
18443;SDS011;9350;53.176;8.194;2023-03-31T15:06:44;14.57;;;6.15;;
18443;SDS011;9350;53.176;8.194;2023-03-31T15:09:13;7.07;;;3.75;;
18443;SDS011;9350;53.176;8.194;2023-03-31T15:11:46;8.73;;;4.03;;
18443;SDS011;9350;53.176;8.194;2023-03-31T15:14:18;6.95;;;3.42;;
18443;SDS011;9350;53.176;8.194;2023-03-31T15:16:45;10.63;;;3.30;;
18443;SDS011;9350;53.176;8.194;2023-03-31T15:19:15;7.85;;;3.22;;
18443;SDS011;9350;53.176;8.194;2023-03-31T15:21:44;8.73;;;3.38;;
18443;SDS011;9350;53.176;8.194;2023-03-31T15:24:12;6.35;;;3.10;;
18443;SDS011;9350;53.176;8.194;2023-03-31T15:26:42;5.80;;;2.67;;
18443;SDS011;9350;53.176;8.194;2023-03-31T15:29:12;8.40;;;3.47;;
18443;SDS011;9350;53.176;8.194;2023-03-31T15:31:45;7.57;;;2.80;;
18443;SDS011;9350;53.176;8.194;2023-03-31T15:34:18;8.23;;;3.08;;
18443;SDS011;9350;53.176;8.194;2023-03-31T15:36:48;7.05;;;2.72;;
18443;SDS011;9350;53.176;8.194;2023-03-31T15:39:15;7.07;;;2.35;;
18443;SDS011;9350;53.176;8.194;2023-03-31T15:41:43;7.10;;;2.75;;
18443;SDS011;9350;53.176;8.194;2023-03-31T15:44:26;9.15;;;2.97;;
18443;SDS011;9350;53.176;8.194;2023-03-31T15:46:58;8.88;;;3.17;;
18443;SDS011;9350;53.176;8.194;2023-03-31T15:49:26;12.18;;;3.22;;